createdAt,value
2018-10-17T00:00:43.536Z,18.43
2018-10-17T00:03:13.199Z,18.47
2018-10-17T00:05:42.814Z,19.97
2018-10-17T00:08:12.421Z,20.20
2018-10-17T00:10:41.964Z,19.63
2018-10-17T00:13:11.652Z,19.37
2018-10-17T00:15:41.408Z,20.63
2018-10-17T00:18:11.258Z,20.00
2018-10-17T00:20:40.817Z,21.07
2018-10-17T00:23:10.500Z,20.93
2018-10-17T00:25:40.172Z,20.23
2018-10-17T00:28:09.765Z,20.00
2018-10-17T00:30:39.397Z,20.53
2018-10-17T00:33:08.991Z,20.77
2018-10-17T00:35:38.550Z,20.40
2018-10-17T00:38:08.230Z,20.20
2018-10-17T00:40:37.842Z,19.50
2018-10-17T00:43:07.606Z,20.43
2018-10-17T00:45:37.257Z,22.37
2018-10-17T00:48:06.856Z,19.17
2018-10-17T00:50:36.433Z,20.57
2018-10-17T00:53:06.117Z,20.07
2018-10-17T00:55:35.720Z,20.10
2018-10-17T00:58:05.450Z,20.27
2018-10-17T01:00:35.089Z,21.10
2018-10-17T01:03:04.752Z,20.53
2018-10-17T01:05:34.312Z,20.93
2018-10-17T01:08:03.954Z,21.37
2018-10-17T01:10:33.605Z,19.90
2018-10-17T01:13:03.321Z,20.93
2018-10-17T01:15:32.873Z,19.60
2018-10-17T01:18:02.449Z,19.30
2018-10-17T01:20:32.131Z,19.63
2018-10-17T01:23:01.717Z,20.23
2018-10-17T01:25:31.413Z,20.57
2018-10-17T01:28:01.027Z,19.33
2018-10-17T01:30:30.600Z,18.60
2018-10-17T01:33:00.218Z,19.57
2018-10-17T01:35:29.852Z,20.03
2018-10-17T01:37:59.452Z,19.70
2018-10-17T01:40:29.021Z,19.10
2018-10-17T01:42:58.612Z,18.73
2018-10-17T01:45:28.143Z,18.27
2018-10-17T01:47:57.805Z,18.40
2018-10-17T01:50:27.326Z,18.07
2018-10-17T01:52:56.897Z,18.07
2018-10-17T01:55:26.530Z,19.40
2018-10-17T01:57:56.083Z,19.97
2018-10-17T02:00:25.741Z,19.87
2018-10-17T02:02:55.337Z,18.73
2018-10-17T02:05:24.915Z,18.83
2018-10-17T02:07:54.504Z,18.00
2018-10-17T02:10:24.098Z,17.40
2018-10-17T02:12:53.699Z,18.43
2018-10-17T02:15:23.327Z,19.03
2018-10-17T02:17:52.932Z,20.37
2018-10-17T02:20:22.531Z,18.73
2018-10-17T02:22:52.148Z,16.17
2018-10-17T02:25:21.745Z,18.07
2018-10-17T02:27:51.314Z,16.07
2018-10-17T02:30:20.970Z,15.77
2018-10-17T02:32:50.551Z,16.93
2018-10-17T02:35:20.285Z,16.90
2018-10-17T02:37:49.718Z,17.97
2018-10-17T02:40:19.270Z,16.63
2018-10-17T02:42:48.821Z,16.17
2018-10-17T02:45:18.353Z,16.50
2018-10-17T02:47:47.995Z,16.77
2018-10-17T02:50:17.568Z,16.73
2018-10-17T02:52:47.099Z,16.27
2018-10-17T02:55:16.760Z,16.47
2018-10-17T02:57:46.320Z,15.77
2018-10-17T03:00:15.943Z,15.97
2018-10-17T03:02:45.473Z,16.27
2018-10-17T03:05:15.040Z,16.47
2018-10-17T03:07:44.574Z,16.17
2018-10-17T03:10:14.133Z,16.70
2018-10-17T03:12:43.772Z,16.67
2018-10-17T03:15:13.278Z,16.80
2018-10-17T03:17:42.862Z,17.10
2018-10-17T03:20:12.534Z,16.00
2018-10-17T03:22:42.091Z,15.73
2018-10-17T03:25:11.759Z,16.37
2018-10-17T03:27:41.419Z,16.60
2018-10-17T03:30:11.221Z,15.63
2018-10-17T03:32:40.830Z,15.53
2018-10-17T03:35:10.567Z,16.17
2018-10-17T03:37:40.665Z,15.87
2018-10-17T03:40:12.838Z,16.23
2018-10-17T03:42:42.526Z,16.07
2018-10-17T03:45:12.150Z,16.13
2018-10-17T03:47:43.574Z,15.80
2018-10-17T03:50:50.482Z,16.10
2018-10-17T03:53:21.188Z,14.73
2018-10-17T03:55:52.012Z,15.27
2018-10-17T03:58:21.743Z,15.57
2018-10-17T04:00:51.557Z,15.30
2018-10-17T04:03:21.155Z,14.93
2018-10-17T04:05:50.854Z,15.37
2018-10-17T04:08:20.522Z,15.33
2018-10-17T04:10:52.652Z,15.70
2018-10-17T04:13:22.290Z,15.13
2018-10-17T04:16:00.758Z,15.20
2018-10-17T04:18:39.243Z,15.27
2018-10-17T04:21:26.605Z,14.97
2018-10-17T04:24:02.568Z,15.77
2018-10-17T04:26:41.692Z,16.27
2018-10-17T04:29:51.970Z,16.57
2018-10-17T04:32:21.841Z,15.23
2018-10-17T04:34:51.703Z,16.13
2018-10-17T04:37:21.363Z,15.37
2018-10-17T04:40:35.381Z,16.20
2018-10-17T04:43:49.273Z,16.37
2018-10-17T05:09:01.715Z,17.97
2018-10-17T05:11:55.993Z,17.37
2018-10-17T05:21:05.116Z,18.97
2018-10-17T05:23:43.529Z,18.07
2018-10-17T05:26:13.288Z,19.47
2018-10-17T05:28:42.897Z,20.03
2018-10-17T05:31:13.336Z,19.33
2018-10-17T05:33:42.864Z,19.27
2018-10-17T05:50:31.335Z,18.07
2018-10-17T05:55:56.674Z,16.87
2018-10-17T06:05:40.177Z,16.63
2018-10-17T06:08:58.374Z,16.70
2018-10-17T06:15:11.229Z,18.17
2018-10-17T06:17:40.953Z,16.77
2018-10-17T06:20:10.612Z,17.80
2018-10-17T06:22:40.370Z,17.30
2018-10-17T06:25:10.713Z,16.57
2018-10-17T06:27:40.398Z,17.57
2018-10-17T06:30:11.248Z,17.47
2018-10-17T06:32:41.262Z,17.03
2018-10-17T06:35:11.247Z,16.43
2018-10-17T06:37:40.877Z,16.43
2018-10-17T06:40:10.953Z,18.13
2018-10-17T06:42:40.624Z,15.80
2018-10-17T06:45:11.143Z,17.47
2018-10-17T06:47:41.492Z,16.77
2018-10-17T06:50:11.937Z,16.67
2018-10-17T06:52:41.581Z,17.13
2018-10-17T06:55:11.845Z,16.03
2018-10-17T06:57:41.911Z,17.37
2018-10-17T07:00:12.395Z,16.87
2018-10-17T07:02:41.984Z,16.87
2018-10-17T07:05:12.163Z,16.77
2018-10-17T07:21:06.630Z,17.17
2018-10-17T07:23:59.906Z,17.40
2018-10-17T07:46:47.998Z,27.33
2018-10-17T07:49:17.650Z,20.13
2018-10-17T07:51:48.705Z,16.30
2018-10-17T07:54:18.293Z,19.53
2018-10-17T07:56:48.483Z,19.33
2018-10-17T07:59:18.188Z,17.23
2018-10-17T08:01:47.860Z,17.83
2018-10-17T08:04:17.482Z,15.93
2018-10-17T08:06:47.157Z,18.13
2018-10-17T08:09:16.859Z,15.23
2018-10-17T08:11:46.609Z,15.20
2018-10-17T08:14:16.262Z,15.70
2018-10-17T08:16:45.937Z,15.57
2018-10-17T08:19:45.391Z,14.77
2018-10-17T08:22:15.039Z,16.90
2018-10-17T08:24:44.725Z,14.97
2018-10-17T08:27:14.497Z,15.10
2018-10-17T08:29:44.091Z,13.57
2018-10-17T08:32:13.766Z,14.85
2018-10-17T08:34:43.543Z,15.23
2018-10-17T08:37:13.532Z,14.70
2018-10-17T08:39:42.881Z,15.55
2018-10-17T08:42:12.526Z,14.70
2018-10-17T08:44:42.125Z,14.40
2018-10-17T08:47:11.872Z,13.90
2018-10-17T08:49:41.592Z,13.95
2018-10-17T08:52:11.354Z,13.93
2018-10-17T08:54:40.936Z,14.10
2018-10-17T08:57:10.574Z,13.87
2018-10-17T08:59:40.361Z,14.47
2018-10-17T09:02:10.026Z,14.90
2018-10-17T09:04:39.786Z,14.28
2018-10-17T09:07:09.462Z,13.70
2018-10-17T09:09:39.178Z,13.30
2018-10-17T09:12:09.220Z,13.57
2018-10-17T09:14:38.852Z,17.17
2018-10-17T09:17:08.508Z,13.43
2018-10-17T09:19:38.401Z,13.97
2018-10-17T09:22:14.395Z,12.40
2018-10-17T09:24:43.723Z,16.20
2018-10-17T09:27:15.358Z,18.77
2018-10-17T09:29:45.052Z,18.67
2018-10-17T09:32:14.692Z,21.60
2018-10-17T09:34:44.336Z,19.30
2018-10-17T09:37:13.878Z,17.27
2018-10-17T09:39:43.502Z,12.07
2018-10-17T09:42:13.316Z,11.57
2018-10-17T09:44:42.909Z,13.97
2018-10-17T09:47:20.953Z,10.43
2018-10-17T09:49:50.574Z,11.03
2018-10-17T09:52:20.165Z,11.00
2018-10-17T09:54:49.810Z,12.50
2018-10-17T09:57:19.455Z,16.33
2018-10-17T09:59:49.079Z,11.30
2018-10-17T10:02:18.774Z,11.60
2018-10-17T10:04:48.374Z,14.40
2018-10-17T10:07:18.107Z,11.93
2018-10-17T10:09:47.692Z,12.43
2018-10-17T10:12:17.441Z,11.63
2018-10-17T10:14:47.125Z,11.73
2018-10-17T10:17:16.822Z,14.23
2018-10-17T10:19:46.531Z,14.57
2018-10-17T10:22:16.801Z,13.80
2018-10-17T10:24:46.465Z,13.17
2018-10-17T10:27:15.986Z,12.57
2018-10-17T10:29:45.867Z,12.70
2018-10-17T10:32:15.387Z,10.87
2018-10-17T10:34:44.986Z,12.65
2018-10-17T10:37:14.520Z,14.18
2018-10-17T10:39:44.095Z,14.30
2018-10-17T10:42:13.738Z,12.50
2018-10-17T10:44:43.331Z,14.93
2018-10-17T10:47:12.932Z,14.45
2018-10-17T10:49:42.518Z,14.10
2018-10-17T10:52:12.320Z,15.13
2018-10-17T10:54:41.829Z,15.67
2018-10-17T10:57:11.427Z,13.17
2018-10-17T10:59:41.128Z,11.90
2018-10-17T11:02:10.751Z,16.40
2018-10-17T11:04:40.414Z,15.23
2018-10-17T11:07:10.061Z,12.10
2018-10-17T11:09:39.584Z,10.95
2018-10-17T11:12:09.194Z,11.97
2018-10-17T11:14:39.243Z,12.47
2018-10-17T11:17:08.746Z,13.60
2018-10-17T11:19:38.377Z,14.40
2018-10-17T11:22:09.285Z,13.93
2018-10-17T11:24:38.770Z,12.03
2018-10-17T11:27:08.546Z,13.57
2018-10-17T11:29:38.108Z,13.03
2018-10-17T11:32:08.079Z,14.23
2018-10-17T11:34:37.695Z,12.13
2018-10-17T11:37:07.326Z,15.60
2018-10-17T11:39:36.920Z,15.38
2018-10-17T11:42:06.834Z,16.07
2018-10-17T11:44:36.488Z,15.63
2018-10-17T11:47:06.210Z,12.13
2018-10-17T11:49:36.145Z,14.03
2018-10-17T11:52:08.558Z,17.57
2018-10-17T11:54:38.262Z,11.83
2018-10-17T11:57:08.140Z,14.98
2018-10-17T11:59:37.694Z,13.73
2018-10-17T12:02:07.648Z,18.23
2018-10-17T12:04:37.651Z,16.73
2018-10-17T12:07:07.065Z,17.27
2018-10-17T12:09:36.643Z,17.27
2018-10-17T12:12:06.660Z,15.00
2018-10-17T12:14:36.962Z,18.77
2018-10-17T12:17:07.536Z,21.13
2018-10-17T12:19:37.250Z,26.73
2018-10-17T12:22:06.914Z,18.63
2018-10-17T12:24:40.824Z,21.83
2018-10-17T12:27:10.433Z,22.07
2018-10-17T12:29:40.190Z,17.83
2018-10-17T12:32:10.026Z,20.37
2018-10-17T12:34:39.822Z,19.53
2018-10-17T12:37:09.425Z,19.27
2018-10-17T12:39:39.093Z,18.73
2018-10-17T12:42:09.016Z,15.20
2018-10-17T12:44:38.630Z,12.47
2018-10-17T12:47:08.235Z,15.38
2018-10-17T12:49:37.974Z,16.90
2018-10-17T12:52:07.747Z,19.03
2018-10-17T12:54:37.561Z,15.73
2018-10-17T12:57:07.999Z,16.13
2018-10-17T12:59:38.440Z,23.43
2018-10-17T13:02:08.730Z,17.23
2018-10-17T13:04:39.178Z,15.87
2018-10-17T13:07:10.554Z,19.23
2018-10-17T13:09:40.919Z,15.37
2018-10-17T13:12:11.523Z,18.30
2018-10-17T13:17:32.068Z,16.97
2018-10-17T13:20:02.564Z,19.07
2018-10-17T13:22:33.023Z,22.93
2018-10-17T13:25:03.468Z,16.77
2018-10-17T13:27:33.897Z,15.77
2018-10-17T13:30:05.001Z,15.77
2018-10-17T13:32:35.374Z,17.80
2018-10-17T13:35:06.518Z,17.43
2018-10-17T13:37:37.038Z,22.87
2018-10-17T13:40:07.696Z,18.10
2018-10-17T13:42:38.027Z,24.60
2018-10-17T13:45:08.559Z,20.53
2018-10-17T13:47:38.919Z,20.33
2018-10-17T13:50:09.585Z,23.67
2018-10-17T13:52:39.925Z,19.87
2018-10-17T13:55:10.358Z,17.67
2018-10-17T13:57:40.877Z,25.40
2018-10-17T14:00:12.861Z,22.17
2018-10-17T14:02:44.212Z,19.10
2018-10-17T14:05:14.927Z,14.20
2018-10-17T14:07:45.023Z,20.37
2018-10-17T14:10:14.720Z,18.73
2018-10-17T14:12:44.734Z,19.77
2018-10-17T14:15:14.538Z,17.03
2018-10-17T14:17:44.187Z,22.93
2018-10-17T14:20:13.880Z,24.50
2018-10-17T14:22:43.404Z,14.33
2018-10-17T14:25:13.062Z,17.03
2018-10-17T14:27:42.559Z,19.03
2018-10-17T14:30:12.222Z,24.33
2018-10-17T14:32:41.823Z,16.60
2018-10-17T14:35:12.950Z,23.70
2018-10-17T14:37:42.713Z,18.40
2018-10-17T14:40:12.279Z,21.63
2018-10-17T14:42:41.948Z,19.17
2018-10-17T14:45:12.076Z,17.90
2018-10-17T14:47:41.958Z,20.60
2018-10-17T14:50:12.074Z,18.10
2018-10-17T14:52:42.024Z,17.03
2018-10-17T14:55:11.879Z,15.10
2018-10-17T14:57:41.700Z,17.07
2018-10-17T15:00:14.793Z,13.00
2018-10-17T15:02:45.426Z,14.33
2018-10-17T15:05:15.944Z,17.80
2018-10-17T15:07:46.300Z,19.67
2018-10-17T15:10:16.603Z,15.60
2018-10-17T15:12:46.961Z,17.87
2018-10-17T15:15:17.340Z,18.77
2018-10-17T15:17:47.555Z,18.53
2018-10-17T15:20:17.649Z,15.47
2018-10-17T15:22:47.202Z,15.60
2018-10-17T15:25:17.076Z,14.60
2018-10-17T15:27:46.638Z,15.10
2018-10-17T15:30:16.335Z,14.13
2018-10-17T15:32:45.890Z,14.67
2018-10-17T15:35:15.536Z,19.27
2018-10-17T15:37:45.114Z,16.63
2018-10-17T15:40:14.742Z,18.30
2018-10-17T15:42:44.354Z,16.97
2018-10-17T15:45:14.090Z,16.83
2018-10-17T15:47:43.853Z,20.53
2018-10-17T15:50:13.612Z,19.13
2018-10-17T15:52:43.528Z,16.43
2018-10-17T15:55:13.395Z,16.80
2018-10-17T15:57:43.058Z,18.37
2018-10-17T16:00:12.844Z,16.63
2018-10-17T16:02:42.570Z,17.20
2018-10-17T16:05:12.656Z,17.00
2018-10-17T16:07:42.573Z,17.60
2018-10-17T16:10:12.176Z,17.93
2018-10-17T16:12:41.876Z,16.80
2018-10-17T16:15:11.636Z,20.13
2018-10-17T16:17:41.387Z,16.93
2018-10-17T16:20:12.617Z,17.80
2018-10-17T16:22:42.772Z,16.93
2018-10-17T16:25:12.447Z,17.40
2018-10-17T16:27:45.731Z,15.87
2018-10-17T16:30:15.452Z,15.60
2018-10-17T16:32:45.077Z,15.47
2018-10-17T16:35:14.687Z,14.33
2018-10-17T16:37:44.286Z,16.90
2018-10-17T16:40:13.888Z,15.70
2018-10-17T16:42:43.469Z,14.83
2018-10-17T16:45:13.025Z,15.87
2018-10-17T16:47:42.711Z,18.00
2018-10-17T16:50:12.383Z,21.67
2018-10-17T16:52:42.023Z,85.33
2018-10-17T16:55:11.596Z,44.03
2018-10-17T16:57:41.260Z,22.13
2018-10-17T17:00:12.846Z,19.93
2018-10-17T17:02:42.362Z,49.33
2018-10-17T17:05:14.224Z,82.53
2018-10-17T17:07:43.841Z,45.50
2018-10-17T17:10:14.361Z,31.70
2018-10-17T17:12:44.310Z,18.40
2018-10-17T17:15:13.984Z,16.60
2018-10-17T17:17:43.555Z,19.13
2018-10-17T17:20:13.530Z,86.53
2018-10-17T17:22:43.158Z,221.53
2018-10-17T17:25:12.831Z,476.97
2018-10-17T17:27:42.439Z,538.63
2018-10-17T17:30:13.973Z,248.07
2018-10-17T17:32:43.615Z,29.43
2018-10-17T17:35:13.175Z,22.10
2018-10-17T17:37:43.103Z,19.13
2018-10-17T17:40:14.016Z,18.77
2018-10-17T17:42:43.746Z,18.57
2018-10-17T17:45:13.382Z,17.63
2018-10-17T17:47:42.959Z,17.43
2018-10-17T17:50:12.609Z,17.60
2018-10-17T17:52:43.618Z,17.57
2018-10-17T17:55:13.364Z,17.97
2018-10-17T17:57:42.911Z,17.33
2018-10-17T18:00:12.786Z,17.60
2018-10-17T18:02:42.327Z,16.53
2018-10-17T18:05:11.977Z,17.33
2018-10-17T18:07:41.742Z,17.77
2018-10-17T18:10:11.498Z,17.77
2018-10-17T18:12:41.161Z,17.57
2018-10-17T18:15:10.845Z,20.27
2018-10-17T18:17:40.556Z,18.57
2018-10-17T18:20:13.029Z,18.83
2018-10-17T18:22:42.778Z,17.10
2018-10-17T18:25:12.446Z,18.90
2018-10-17T18:27:43.672Z,17.40
2018-10-17T18:30:13.406Z,17.73
2018-10-17T18:32:43.010Z,17.27
2018-10-17T18:35:12.878Z,16.43
2018-10-17T18:37:42.440Z,16.37
2018-10-17T18:40:12.244Z,16.43
2018-10-17T18:42:41.923Z,15.63
2018-10-17T18:45:11.872Z,16.47
2018-10-17T18:47:41.478Z,15.80
2018-10-17T18:50:11.056Z,15.23
2018-10-17T18:52:40.654Z,17.30
2018-10-17T18:55:10.242Z,16.00
2018-10-17T18:57:39.845Z,15.83
2018-10-17T19:00:10.930Z,16.10
2018-10-17T19:02:40.621Z,20.53
2018-10-17T19:05:10.275Z,21.07
2018-10-17T19:07:39.943Z,23.07
2018-10-17T19:10:09.606Z,22.70
2018-10-17T19:12:39.195Z,17.13
2018-10-17T19:15:08.847Z,15.80
2018-10-17T19:17:38.418Z,15.77
2018-10-17T19:20:08.125Z,16.10
2018-10-17T19:22:37.753Z,16.57
2018-10-17T19:25:07.756Z,17.83
2018-10-17T19:27:37.645Z,22.50
2018-10-17T19:30:09.108Z,18.23
2018-10-17T19:32:39.018Z,17.77
2018-10-17T19:35:08.672Z,18.67
2018-10-17T19:37:38.284Z,22.97
2018-10-17T19:40:08.902Z,18.53
2018-10-17T19:42:38.479Z,19.50
2018-10-17T19:45:09.387Z,20.73
2018-10-17T19:47:38.988Z,23.37
2018-10-17T19:50:09.308Z,25.93
2018-10-17T19:52:38.980Z,27.97
2018-10-17T19:55:09.889Z,26.83
2018-10-17T19:57:39.600Z,30.13
2018-10-17T20:00:11.744Z,29.80
2018-10-17T20:02:41.810Z,32.73
2018-10-17T20:05:11.695Z,32.13
2018-10-17T20:07:41.654Z,33.00
2018-10-17T20:10:11.360Z,31.27
2018-10-17T20:12:41.007Z,33.43
2018-10-17T20:15:10.808Z,35.10
2018-10-17T20:17:40.414Z,28.60
2018-10-17T20:20:10.156Z,28.23
2018-10-17T20:22:39.748Z,27.80
2018-10-17T20:25:09.468Z,29.07
2018-10-17T20:27:39.112Z,27.77
2018-10-17T20:30:10.022Z,24.00
2018-10-17T20:32:39.535Z,24.50
2018-10-17T20:35:09.384Z,24.07
2018-10-17T20:37:39.042Z,24.67
2018-10-17T20:40:08.944Z,24.13
2018-10-17T20:42:38.675Z,24.20
2018-10-17T20:45:08.602Z,22.57
2018-10-17T20:47:38.240Z,22.93
2018-10-17T20:50:08.265Z,21.17
2018-10-17T20:52:37.851Z,21.03
2018-10-17T20:55:07.571Z,20.40
2018-10-17T20:57:37.240Z,20.77
2018-10-17T21:00:07.701Z,19.67
2018-10-17T21:02:37.420Z,21.17
2018-10-17T21:05:07.911Z,20.10
2018-10-17T21:07:37.540Z,18.90
2018-10-17T21:10:07.966Z,19.40
2018-10-17T21:12:37.557Z,21.13
2018-10-17T21:15:08.184Z,20.47
2018-10-17T21:17:37.790Z,20.40
2018-10-17T21:20:07.639Z,20.73
2018-10-17T21:22:37.301Z,21.37
2018-10-17T21:25:07.220Z,20.13
2018-10-17T21:27:36.740Z,18.97
2018-10-17T21:30:07.115Z,20.90
2018-10-17T21:32:36.644Z,19.20
2018-10-17T21:35:07.320Z,18.47
2018-10-17T21:37:37.243Z,18.57
2018-10-17T21:40:06.907Z,18.13
2018-10-17T21:42:36.460Z,17.33
2018-10-17T21:45:07.014Z,17.13
2018-10-17T21:47:36.685Z,16.53
2018-10-17T21:50:06.544Z,16.47
2018-10-17T21:52:36.175Z,16.10
2018-10-17T21:55:05.967Z,16.07
2018-10-17T21:57:35.557Z,16.07
2018-10-17T22:00:06.307Z,16.90
2018-10-17T22:02:35.994Z,15.37
2018-10-17T22:05:06.487Z,17.83
2018-10-17T22:07:36.199Z,16.93
2018-10-17T22:10:06.313Z,17.07
2018-10-17T22:12:35.944Z,17.30
2018-10-17T22:15:06.674Z,16.90
2018-10-17T22:17:36.345Z,16.90
2018-10-17T22:20:06.389Z,16.17
2018-10-17T22:22:36.003Z,16.53
2018-10-17T22:25:06.182Z,15.87
2018-10-17T22:27:35.953Z,14.90
2018-10-17T22:30:06.113Z,15.80
2018-10-17T22:32:35.659Z,15.30
2018-10-17T22:35:05.320Z,15.03
2018-10-17T22:37:34.991Z,14.10
2018-10-17T22:40:04.667Z,14.40
2018-10-17T22:42:34.274Z,16.03
2018-10-17T22:45:03.845Z,14.63
2018-10-17T22:47:33.403Z,14.47
2018-10-17T22:50:03.019Z,14.70
2018-10-17T22:52:32.593Z,14.97
2018-10-17T22:55:02.280Z,14.93
2018-10-17T22:57:31.876Z,14.07
2018-10-17T23:00:01.541Z,14.67
2018-10-17T23:02:31.094Z,14.67
2018-10-17T23:05:00.807Z,14.63
2018-10-17T23:07:30.368Z,14.77
2018-10-17T23:09:59.974Z,15.27
2018-10-17T23:12:29.539Z,14.30
2018-10-17T23:14:59.134Z,15.40
2018-10-17T23:17:28.651Z,16.63
2018-10-17T23:19:58.246Z,15.33
2018-10-17T23:22:27.848Z,16.40
2018-10-17T23:24:57.344Z,14.10
2018-10-17T23:27:26.882Z,14.07
2018-10-17T23:29:56.469Z,13.90
2018-10-17T23:32:26.035Z,16.53
2018-10-17T23:34:55.640Z,14.80
2018-10-17T23:37:25.240Z,15.33
2018-10-17T23:39:54.852Z,15.03
2018-10-17T23:42:24.469Z,14.27
2018-10-17T23:44:54.090Z,15.87
2018-10-17T23:47:23.699Z,14.70
2018-10-17T23:49:53.284Z,14.67
2018-10-17T23:52:22.874Z,15.23
2018-10-17T23:54:52.481Z,15.30
2018-10-17T23:57:22.074Z,15.37
2018-10-17T23:59:51.653Z,16.33
